createdAt,value
2017-11-03T00:02:24.190Z,11.20
2017-11-03T00:04:53.160Z,11.20
2017-11-03T00:07:23.409Z,11.20
2017-11-03T00:09:57.130Z,11.20
2017-11-03T00:12:25.350Z,11.10
2017-11-03T00:14:56.553Z,11.10
2017-11-03T00:17:24.691Z,11.00
2017-11-03T00:19:55.254Z,11.00
2017-11-03T00:22:26.145Z,11.00
2017-11-03T00:25:00.350Z,11.00
2017-11-03T00:27:32.318Z,11.00
2017-11-03T00:30:00.807Z,10.90
2017-11-03T00:32:32.461Z,10.90
2017-11-03T00:35:00.269Z,10.90
2017-11-03T00:37:30.425Z,10.90
2017-11-03T00:40:02.647Z,11.00
2017-11-03T00:42:35.027Z,10.80
2017-11-03T00:45:06.135Z,10.80
2017-11-03T00:47:49.456Z,10.70
2017-11-03T00:50:24.224Z,10.70
2017-11-03T00:52:56.973Z,10.70
2017-11-03T00:55:28.820Z,10.80
2017-11-03T00:57:59.501Z,10.70
2017-11-03T01:00:31.188Z,10.80
2017-11-03T01:03:05.183Z,10.80
2017-11-03T01:05:35.366Z,10.90
2017-11-03T01:08:06.989Z,10.80
2017-11-03T01:10:38.720Z,10.70
2017-11-03T01:13:08.244Z,10.80
2017-11-03T01:15:38.938Z,10.80
2017-11-03T01:18:08.392Z,10.80
2017-11-03T01:23:21.782Z,10.80
2017-11-03T01:25:51.728Z,10.90
2017-11-03T01:28:22.386Z,10.80
2017-11-03T01:30:51.808Z,10.80
2017-11-03T01:33:24.589Z,10.70
2017-11-03T01:35:58.089Z,10.60
2017-11-03T01:38:34.227Z,10.50
2017-11-03T01:41:02.271Z,10.50
2017-11-03T01:43:31.713Z,10.50
2017-11-03T01:46:02.025Z,10.40
2017-11-03T01:48:31.538Z,10.50
2017-11-03T01:51:03.010Z,10.50
2017-11-03T01:53:31.885Z,10.50
2017-11-03T01:58:36.426Z,10.50
2017-11-03T02:01:08.733Z,10.40
2017-11-03T02:03:39.149Z,10.40
2017-11-03T02:06:07.916Z,10.30
2017-11-03T02:08:40.406Z,10.20
2017-11-03T02:11:10.705Z,10.30
2017-11-03T02:13:41.058Z,10.30
2017-11-03T02:16:19.931Z,10.30
2017-11-03T02:18:53.804Z,10.20
2017-11-03T02:21:26.654Z,10.20
2017-11-03T02:23:56.941Z,10.10
2017-11-03T02:26:28.170Z,10.20
2017-11-03T02:28:57.683Z,10.30
2017-11-03T02:31:28.190Z,10.20
2017-11-03T02:34:01.317Z,10.30
2017-11-03T02:36:28.870Z,10.30
2017-11-03T02:38:58.338Z,10.30
2017-11-03T02:41:28.077Z,10.30
2017-11-03T02:43:58.064Z,10.30
2017-11-03T02:46:28.138Z,10.40
2017-11-03T02:49:00.809Z,10.40
2017-11-03T02:51:30.817Z,10.30
2017-11-03T02:54:00.644Z,10.30
2017-11-03T02:56:32.228Z,10.30
2017-11-03T02:59:01.384Z,10.40
2017-11-03T03:01:33.725Z,10.30
2017-11-03T03:04:01.777Z,10.30
2017-11-03T03:06:30.985Z,10.20
2017-11-03T03:09:04.530Z,10.20
2017-11-03T03:11:32.859Z,10.20
2017-11-03T03:14:01.169Z,10.30
2017-11-03T03:16:29.545Z,10.30
2017-11-03T03:18:58.273Z,10.30
2017-11-03T03:21:31.452Z,10.20
2017-11-03T03:23:59.082Z,10.30
2017-11-03T03:26:28.829Z,10.30
2017-11-03T03:29:01.420Z,10.20
2017-11-03T03:31:31.056Z,10.30
2017-11-03T03:33:58.610Z,10.20
2017-11-03T03:36:30.532Z,10.20
2017-11-03T03:38:58.254Z,10.20
2017-11-03T03:41:26.970Z,10.30
2017-11-03T03:43:57.122Z,10.30
2017-11-03T03:46:26.645Z,10.30
2017-11-03T03:48:57.029Z,10.30
2017-11-03T03:51:28.368Z,10.30
2017-11-03T03:53:57.036Z,10.30
2017-11-03T05:21:28.553Z,10.20
2017-11-03T05:23:58.846Z,9.70
2017-11-03T05:26:26.843Z,9.80
2017-11-03T05:28:55.874Z,9.80
2017-11-03T05:31:26.815Z,9.80
2017-11-03T05:33:56.156Z,10.00
2017-11-03T05:36:25.350Z,10.00
2017-11-03T05:38:59.252Z,10.10
2017-11-03T05:41:28.127Z,10.20
2017-11-03T05:43:56.732Z,10.30
2017-11-03T05:46:25.889Z,10.30
2017-11-03T05:49:00.853Z,10.30
2017-11-03T05:51:30.730Z,10.30
2017-11-03T05:53:59.964Z,10.30
2017-11-03T05:56:27.572Z,10.30
2017-11-03T05:58:56.119Z,10.30
2017-11-03T06:01:24.436Z,10.40
2017-11-03T06:03:54.805Z,10.50
2017-11-03T06:06:23.928Z,10.40
2017-11-03T06:08:52.994Z,10.40
2017-11-03T06:11:24.625Z,10.30
2017-11-03T06:13:56.776Z,10.30
2017-11-03T06:16:32.546Z,10.40
2017-11-03T06:19:01.040Z,10.30
2017-11-03T06:21:28.625Z,10.30
2017-11-03T06:23:56.495Z,10.40
2017-11-03T06:26:26.891Z,10.40
2017-11-03T06:28:56.585Z,10.50
2017-11-03T06:31:26.337Z,10.50
2017-11-03T06:33:55.457Z,10.50
2017-11-03T06:36:24.766Z,10.50
2017-11-03T06:38:57.571Z,10.50
2017-11-03T06:41:26.183Z,10.50
2017-11-03T06:43:55.436Z,10.60
2017-11-03T06:46:30.072Z,10.50
2017-11-03T06:48:59.216Z,10.50
2017-11-03T06:51:28.914Z,10.50
2017-11-03T06:54:00.390Z,10.60
2017-11-03T06:56:29.317Z,10.60
2017-11-03T06:58:57.168Z,10.60
2017-11-03T07:01:27.422Z,10.60
2017-11-03T07:03:58.766Z,10.60
2017-11-03T07:06:27.148Z,10.80
2017-11-03T07:08:56.202Z,10.70
2017-11-03T07:11:24.112Z,10.70
2017-11-03T07:13:53.082Z,10.80
2017-11-03T07:16:23.487Z,10.80
2017-11-03T07:18:54.758Z,10.80
2017-11-03T07:21:25.488Z,10.90
2017-11-03T07:24:16.690Z,10.90
2017-11-03T07:26:50.187Z,11.00
2017-11-03T07:29:20.644Z,11.00
2017-11-03T07:31:51.260Z,11.10
2017-11-03T07:34:22.798Z,11.10
2017-11-03T07:36:53.631Z,11.10
2017-11-03T07:39:26.013Z,11.20
2017-11-03T07:41:56.463Z,11.20
2017-11-03T07:44:25.677Z,11.30
2017-11-03T07:46:56.748Z,11.40
2017-11-03T07:49:26.407Z,11.50
2017-11-03T07:51:56.281Z,11.50
2017-11-03T07:54:27.363Z,11.60
2017-11-03T07:56:56.760Z,11.70
2017-11-03T07:59:26.888Z,11.80
2017-11-03T08:01:56.958Z,11.90
2017-11-03T08:04:27.458Z,11.90
2017-11-03T08:06:56.303Z,11.80
2017-11-03T08:09:26.290Z,11.90
2017-11-03T08:11:55.332Z,12.00
2017-11-03T08:14:24.499Z,12.10
2017-11-03T08:16:53.107Z,12.20
2017-11-03T08:19:22.332Z,12.20
2017-11-03T08:21:51.626Z,12.60
2017-11-03T08:24:21.673Z,12.80
2017-11-03T08:26:51.475Z,12.90
2017-11-03T08:29:22.377Z,12.90
2017-11-03T08:31:53.550Z,13.00
2017-11-03T08:34:22.468Z,13.00
2017-11-03T08:36:51.886Z,12.90
2017-11-03T08:39:23.796Z,12.90
2017-11-03T08:41:54.519Z,12.80
2017-11-03T08:44:25.649Z,12.60
2017-11-03T08:46:55.467Z,12.60
2017-11-03T08:49:26.304Z,12.60
2017-11-03T08:51:58.046Z,12.50
2017-11-03T08:54:26.799Z,12.60
2017-11-03T08:56:54.458Z,12.60
2017-11-03T08:59:22.468Z,12.70
2017-11-03T09:01:50.157Z,12.70
2017-11-03T09:04:20.909Z,12.70
2017-11-03T09:06:50.400Z,12.70
2017-11-03T09:09:18.408Z,12.70
2017-11-03T09:11:46.392Z,12.60
2017-11-03T09:14:14.421Z,12.50
2017-11-03T09:16:45.416Z,12.50
2017-11-03T09:19:16.181Z,12.50
2017-11-03T09:21:45.001Z,12.60
2017-11-03T09:24:13.775Z,12.70
2017-11-03T09:26:42.264Z,12.70
2017-11-03T09:29:09.940Z,12.70
2017-11-03T09:31:37.531Z,12.90
2017-11-03T09:34:06.232Z,13.00
2017-11-03T09:36:33.848Z,13.00
2017-11-03T09:39:02.375Z,13.10
2017-11-03T09:41:30.532Z,13.20
2017-11-03T09:43:59.845Z,13.30
2017-11-03T09:46:28.251Z,13.40
2017-11-03T09:48:56.149Z,13.40
2017-11-03T09:51:24.134Z,13.50
2017-11-03T09:53:53.114Z,13.60
2017-11-03T09:56:23.077Z,13.60
2017-11-03T09:58:51.082Z,13.60
2017-11-03T10:01:21.094Z,13.60
2017-11-03T10:03:49.387Z,13.50
2017-11-03T10:06:19.357Z,13.60
2017-11-03T10:08:48.972Z,13.60
2017-11-03T10:11:20.134Z,13.80
2017-11-03T10:13:49.508Z,13.70
2017-11-03T10:16:19.170Z,13.60
2017-11-03T10:18:49.074Z,13.60
2017-11-03T10:21:19.067Z,13.60
2017-11-03T10:23:48.721Z,13.60
2017-11-03T10:26:18.855Z,13.70
2017-11-03T10:28:48.294Z,13.80
2017-11-03T10:31:17.309Z,13.80
2017-11-03T10:33:47.677Z,14.00
2017-11-03T10:36:17.989Z,14.10
2017-11-03T10:38:47.428Z,14.00
2017-11-03T10:41:17.399Z,14.20
2017-11-03T10:43:48.952Z,14.10
2017-11-03T10:46:21.365Z,14.10
2017-11-03T10:48:52.085Z,14.30
2017-11-03T10:51:24.100Z,14.40
2017-11-03T10:53:53.587Z,14.30
2017-11-03T10:56:22.506Z,14.30
2017-11-03T10:58:54.136Z,14.40
2017-11-03T11:01:24.241Z,14.50
2017-11-03T11:03:53.791Z,14.50
2017-11-03T11:06:24.564Z,14.60
2017-11-03T11:08:53.373Z,14.60
2017-11-03T11:11:23.424Z,14.70
2017-11-03T11:13:52.811Z,14.70
2017-11-03T11:16:25.054Z,14.80
2017-11-03T11:18:54.872Z,14.80
2017-11-03T11:21:27.135Z,14.80
2017-11-03T11:23:58.742Z,15.00
2017-11-03T11:26:29.714Z,15.00
2017-11-03T11:28:59.239Z,15.00
2017-11-03T11:31:28.880Z,15.10
2017-11-03T11:33:56.454Z,15.10
2017-11-03T11:36:24.696Z,15.00
2017-11-03T11:38:52.445Z,15.00
2017-11-03T11:41:20.144Z,15.00
2017-11-03T11:43:49.619Z,15.00
2017-11-03T11:46:17.614Z,15.00
2017-11-03T11:48:46.658Z,15.10
2017-11-03T11:51:16.530Z,15.20
2017-11-03T11:53:45.197Z,15.20
2017-11-03T11:56:13.320Z,15.20
2017-11-03T11:58:40.904Z,15.20
2017-11-03T12:01:08.478Z,15.20
2017-11-03T12:03:36.068Z,15.30
2017-11-03T12:06:03.673Z,15.30
2017-11-03T12:08:31.253Z,15.40
2017-11-03T12:10:58.805Z,15.40
2017-11-03T12:13:27.966Z,15.40
2017-11-03T12:15:56.290Z,15.40
2017-11-03T12:18:23.960Z,15.40
2017-11-03T12:20:52.466Z,15.40
2017-11-03T12:23:20.176Z,15.60
2017-11-03T12:25:48.912Z,15.50
2017-11-03T12:28:16.582Z,15.50
2017-11-03T12:30:45.110Z,15.60
2017-11-03T12:33:13.293Z,15.60
2017-11-03T12:35:41.040Z,15.70
2017-11-03T12:38:09.531Z,15.70
2017-11-03T12:40:37.197Z,15.80
2017-11-03T12:43:04.803Z,15.90
2017-11-03T12:45:32.421Z,15.90
2017-11-03T12:48:00.968Z,16.00
2017-11-03T12:50:28.606Z,15.90
2017-11-03T12:52:56.272Z,16.00
2017-11-03T12:55:24.907Z,16.00
2017-11-03T12:57:52.759Z,16.10
2017-11-03T13:00:20.473Z,16.20
2017-11-03T13:02:48.723Z,16.30
2017-11-03T13:05:17.445Z,16.40
2017-11-03T13:07:46.087Z,16.60
2017-11-03T13:10:14.681Z,16.90
2017-11-03T13:12:42.415Z,16.90
2017-11-03T13:15:10.389Z,17.10
2017-11-03T13:17:38.946Z,17.20
2017-11-03T13:20:06.753Z,17.40
2017-11-03T13:22:34.549Z,17.60
2017-11-03T13:25:03.230Z,17.90
2017-11-03T13:27:30.941Z,18.10
2017-11-03T13:29:58.951Z,18.60
2017-11-03T13:32:26.669Z,19.10
2017-11-03T13:34:54.889Z,19.60
2017-11-03T13:37:23.760Z,20.20
2017-11-03T13:39:52.363Z,20.50
2017-11-03T13:42:20.267Z,20.20
2017-11-03T13:44:50.098Z,19.70
2017-11-03T13:47:20.709Z,18.90
2017-11-03T13:49:49.598Z,17.80
2017-11-03T13:52:19.405Z,17.30
2017-11-03T13:54:48.982Z,17.30
2017-11-03T13:57:18.291Z,16.60
2017-11-03T13:59:46.718Z,16.60
2017-11-03T14:02:15.489Z,16.40
2017-11-03T14:04:44.296Z,16.10
2017-11-03T14:07:15.032Z,15.80
2017-11-03T14:09:44.230Z,15.50
2017-11-03T14:12:13.310Z,15.20
2017-11-03T14:14:43.550Z,15.20
2017-11-03T14:17:12.436Z,15.20
2017-11-03T14:19:40.255Z,14.90
2017-11-03T14:22:07.808Z,14.80
2017-11-03T14:24:35.448Z,14.70
2017-11-03T14:27:03.008Z,14.70
2017-11-03T14:29:30.597Z,14.50
2017-11-03T14:31:58.156Z,14.40
2017-11-03T14:34:26.354Z,14.40
2017-11-03T14:36:53.936Z,14.30
2017-11-03T14:39:22.644Z,14.10
2017-11-03T14:41:53.008Z,14.10
2017-11-03T14:44:21.007Z,14.00
2017-11-03T14:46:49.406Z,13.90
2017-11-03T14:49:18.433Z,13.70
2017-11-03T14:51:46.913Z,13.60
2017-11-03T14:54:15.674Z,13.50
2017-11-03T14:56:47.651Z,13.40
2017-11-03T14:59:16.556Z,13.40
2017-11-03T15:01:45.846Z,13.30
2017-11-03T15:04:14.608Z,13.30
2017-11-03T15:06:42.351Z,13.20
2017-11-03T15:09:09.983Z,13.10
2017-11-03T15:11:37.648Z,13.10
2017-11-03T15:14:05.298Z,13.00
2017-11-03T15:16:35.617Z,13.00
2017-11-03T15:19:03.998Z,12.90
2017-11-03T15:21:32.351Z,12.80
2017-11-03T15:23:59.984Z,12.80
2017-11-03T15:26:27.604Z,12.60
2017-11-03T15:28:55.472Z,12.60
2017-11-03T15:31:23.310Z,12.70
2017-11-03T15:33:51.947Z,12.50
2017-11-03T15:36:20.098Z,12.50
2017-11-03T15:38:47.916Z,12.40
2017-11-03T15:41:15.767Z,12.50
2017-11-03T15:43:49.678Z,12.30
2017-11-03T15:46:21.342Z,12.30
2017-11-03T15:48:50.052Z,12.20
2017-11-03T15:51:26.159Z,12.00
2017-11-03T15:53:55.215Z,12.00
2017-11-03T15:56:23.968Z,12.10
2017-11-03T15:58:54.736Z,12.00
2017-11-03T16:01:23.191Z,11.90
2017-11-03T16:03:51.901Z,11.90
2017-11-03T16:06:20.314Z,11.80
2017-11-03T16:08:50.436Z,11.70
2017-11-03T16:11:21.543Z,11.80
2017-11-03T16:13:52.377Z,11.70
2017-11-03T16:16:23.266Z,11.60
2017-11-03T16:18:52.006Z,11.50
2017-11-03T16:21:21.973Z,11.50
2017-11-03T16:23:51.856Z,11.50
2017-11-03T16:26:20.686Z,11.40
2017-11-03T16:28:50.119Z,11.40
2017-11-03T16:31:20.854Z,11.20
2017-11-03T16:33:53.918Z,11.20
2017-11-03T16:36:24.503Z,11.10
2017-11-03T16:38:56.531Z,11.20
2017-11-03T16:41:27.353Z,11.10
2017-11-03T16:43:59.252Z,11.10
2017-11-03T16:46:28.488Z,11.00
2017-11-03T16:48:58.069Z,11.00
2017-11-03T16:51:28.730Z,10.90
2017-11-03T16:53:58.640Z,10.90
2017-11-03T16:56:29.606Z,10.80
2017-11-03T16:58:59.355Z,10.70
2017-11-03T17:01:28.435Z,10.80
2017-11-03T17:03:58.222Z,10.80
2017-11-03T17:06:27.762Z,10.70
2017-11-03T17:08:56.988Z,10.60
2017-11-03T17:11:25.080Z,10.50
2017-11-03T17:13:53.459Z,10.50
2017-11-03T17:16:24.731Z,10.40
2017-11-03T17:18:54.893Z,10.30
2017-11-03T17:21:24.359Z,10.30
2017-11-03T17:23:53.347Z,10.30
2017-11-03T17:26:23.231Z,10.40
2017-11-03T17:28:53.126Z,10.40
2017-11-03T17:31:22.563Z,10.20
2017-11-03T17:33:51.828Z,10.20
2017-11-03T17:36:22.969Z,10.20
2017-11-03T17:38:51.999Z,10.20
2017-11-03T17:41:22.529Z,10.10
2017-11-03T17:43:53.082Z,10.10
2017-11-03T17:46:23.118Z,10.10
2017-11-03T17:48:52.480Z,9.90
2017-11-03T17:51:22.388Z,9.80
2017-11-03T17:53:56.253Z,9.90
2017-11-03T17:56:25.137Z,9.90
2017-11-03T17:58:54.049Z,9.90
2017-11-03T18:01:23.318Z,9.90
2017-11-03T18:03:54.422Z,9.90
2017-11-03T18:06:25.680Z,9.80
2017-11-03T18:08:54.344Z,9.70
2017-11-03T18:11:22.761Z,9.60
2017-11-03T18:13:52.713Z,9.60
2017-11-03T18:16:20.900Z,9.60
2017-11-03T18:18:50.652Z,9.60
2017-11-03T18:21:20.141Z,9.50
2017-11-03T18:23:50.804Z,9.50
2017-11-03T18:26:21.732Z,9.50
2017-11-03T18:28:51.213Z,9.40
2017-11-03T18:31:22.362Z,9.60
2017-11-03T18:33:52.670Z,9.60
2017-11-03T18:36:20.737Z,9.50
2017-11-03T18:38:48.773Z,9.50
2017-11-03T18:41:17.651Z,9.50
2017-11-03T18:43:46.612Z,9.40
2017-11-03T18:46:17.486Z,9.40
2017-11-03T18:48:45.479Z,9.40
2017-11-03T18:51:13.722Z,9.30
2017-11-03T18:53:42.184Z,9.30
2017-11-03T18:56:10.101Z,9.30
2017-11-03T18:58:38.444Z,9.30
2017-11-03T19:01:05.992Z,9.30
2017-11-03T19:03:33.619Z,9.20
2017-11-03T19:06:01.155Z,9.20
2017-11-03T19:08:28.731Z,9.20
2017-11-03T19:10:57.113Z,9.10
2017-11-03T19:13:24.685Z,9.10
2017-11-03T19:15:52.244Z,9.00
2017-11-03T19:18:19.833Z,9.00
2017-11-03T19:20:49.270Z,9.10
2017-11-03T19:23:18.814Z,9.10
2017-11-03T19:25:49.008Z,9.20
2017-11-03T19:28:17.159Z,9.10
2017-11-03T19:30:45.317Z,9.10
2017-11-03T19:33:15.335Z,9.00
2017-11-03T19:35:43.759Z,9.00
2017-11-03T19:38:11.668Z,9.00
2017-11-03T19:40:40.002Z,9.10
2017-11-03T19:43:07.796Z,9.10
2017-11-03T19:45:35.418Z,9.10
2017-11-03T19:48:02.989Z,9.00
2017-11-03T19:50:30.572Z,9.00
2017-11-03T19:52:58.156Z,8.90
2017-11-03T19:55:25.988Z,8.90
2017-11-03T19:57:53.843Z,9.00
2017-11-03T20:00:21.729Z,8.90
2017-11-03T20:02:50.202Z,8.90
2017-11-03T20:05:19.980Z,9.00
2017-11-03T20:07:49.315Z,9.00
2017-11-03T20:10:18.669Z,9.00
2017-11-03T20:12:48.207Z,8.90
2017-11-03T20:15:17.979Z,8.90
2017-11-03T20:17:48.021Z,8.80
2017-11-03T20:20:16.918Z,8.90
2017-11-03T20:22:50.603Z,8.90
2017-11-03T20:25:23.806Z,8.90
2017-11-03T20:27:52.967Z,8.90
2017-11-03T20:30:22.361Z,8.80
2017-11-03T20:32:52.324Z,8.80
2017-11-03T20:35:21.621Z,8.90
2017-11-03T20:37:52.085Z,9.00
2017-11-03T20:40:20.943Z,8.90
2017-11-03T20:42:50.341Z,8.90
2017-11-03T20:45:19.952Z,8.90
2017-11-03T20:47:49.805Z,8.90
2017-11-03T20:50:20.124Z,8.90
2017-11-03T20:52:49.075Z,9.00
2017-11-03T20:55:17.496Z,8.90
2017-11-03T20:57:46.377Z,8.90
2017-11-03T21:00:16.055Z,8.90
2017-11-03T21:02:44.149Z,8.90
2017-11-03T21:05:11.837Z,8.90
2017-11-03T21:07:39.470Z,8.90
2017-11-03T21:10:07.767Z,8.90
2017-11-03T21:12:36.096Z,8.90
2017-11-03T21:15:03.685Z,8.90
2017-11-03T21:17:31.259Z,9.00
2017-11-03T21:19:58.851Z,9.10
2017-11-03T21:22:27.406Z,9.00
2017-11-03T21:24:55.572Z,9.00
2017-11-03T21:27:23.848Z,9.00
2017-11-03T21:29:51.933Z,9.00
2017-11-03T21:32:21.408Z,9.00
2017-11-03T21:34:51.409Z,9.00
2017-11-03T21:37:22.044Z,9.00
2017-11-03T21:39:52.198Z,8.90
2017-11-03T21:42:22.465Z,8.90
2017-11-03T21:44:51.405Z,8.90
2017-11-03T21:47:21.371Z,8.90
2017-11-03T21:49:50.075Z,8.90
2017-11-03T21:52:20.887Z,8.80
2017-11-03T21:54:51.334Z,8.70
2017-11-03T21:57:22.300Z,8.70
2017-11-03T21:59:51.492Z,8.90
2017-11-03T22:02:21.145Z,8.90
2017-11-03T22:04:50.525Z,8.90
2017-11-03T22:07:19.793Z,8.80
2017-11-03T22:09:47.788Z,8.70
2017-11-03T22:12:16.223Z,8.90
2017-11-03T22:14:46.384Z,8.80
2017-11-03T22:17:17.494Z,8.80
2017-11-03T22:19:48.103Z,8.80
2017-11-03T22:22:19.916Z,8.80
2017-11-03T22:24:50.611Z,8.80
2017-11-03T22:27:20.488Z,8.80
2017-11-03T22:29:49.716Z,8.70
2017-11-03T22:32:19.252Z,8.70
2017-11-03T22:34:48.790Z,8.70
2017-11-03T22:37:18.871Z,8.90
2017-11-03T22:39:49.644Z,8.90
2017-11-03T22:42:18.381Z,8.90
2017-11-03T22:44:49.236Z,8.70
2017-11-03T22:47:19.961Z,8.70
2017-11-03T22:49:49.564Z,8.70
2017-11-03T22:52:19.870Z,8.60
2017-11-03T22:54:48.834Z,8.60
2017-11-03T22:57:19.133Z,8.60
2017-11-03T22:59:48.514Z,8.60
2017-11-03T23:02:16.685Z,8.60
2017-11-03T23:04:48.088Z,8.60
2017-11-03T23:07:17.763Z,8.60
2017-11-03T23:09:47.699Z,8.50
2017-11-03T23:12:18.291Z,8.40
2017-11-03T23:14:48.237Z,8.40
2017-11-03T23:17:16.669Z,8.40
2017-11-03T23:19:44.608Z,8.40
2017-11-03T23:22:13.381Z,8.50
2017-11-03T23:24:42.116Z,8.50
2017-11-03T23:27:09.712Z,8.60
2017-11-03T23:29:37.370Z,8.60
2017-11-03T23:32:04.912Z,8.60
2017-11-03T23:34:33.310Z,8.50
2017-11-03T23:37:02.176Z,8.50
2017-11-03T23:39:30.406Z,8.50
2017-11-03T23:41:58.799Z,8.60
2017-11-03T23:44:27.448Z,8.50
2017-11-03T23:46:55.368Z,8.50
2017-11-03T23:49:24.767Z,8.50
2017-11-03T23:51:53.647Z,8.50
2017-11-03T23:54:23.164Z,8.50
2017-11-03T23:56:52.091Z,8.40
2017-11-03T23:59:21.289Z,8.60
